sensor_id;sensor_type;location;lat;lon;timestamp;P1;durP1;ratioP1;P2;durP2;ratioP2
73693;SDS011;61997;53.974;11.670;2023-09-19T00:01:09;4.40;;;3.33;;
73693;SDS011;61997;53.974;11.670;2023-09-19T00:03:36;5.95;;;3.78;;
73693;SDS011;61997;53.974;11.670;2023-09-19T00:06:02;5.32;;;3.28;;
73693;SDS011;61997;53.974;11.670;2023-09-19T00:08:29;5.38;;;2.88;;
73693;SDS011;61997;53.974;11.670;2023-09-19T00:10:55;5.20;;;3.30;;
73693;SDS011;61997;53.974;11.670;2023-09-19T00:13:29;4.82;;;3.25;;
73693;SDS011;61997;53.974;11.670;2023-09-19T00:15:56;4.25;;;3.00;;
73693;SDS011;61997;53.974;11.670;2023-09-19T00:18:23;3.40;;;2.50;;
73693;SDS011;61997;53.974;11.670;2023-09-19T00:20:56;5.05;;;2.67;;
73693;SDS011;61997;53.974;11.670;2023-09-19T00:23:22;4.70;;;2.55;;
73693;SDS011;61997;53.974;11.670;2023-09-19T00:25:47;4.00;;;2.55;;
73693;SDS011;61997;53.974;11.670;2023-09-19T00:28:13;5.72;;;3.00;;
73693;SDS011;61997;53.974;11.670;2023-09-19T00:30:39;4.78;;;2.75;;
73693;SDS011;61997;53.974;11.670;2023-09-19T00:35:33;4.57;;;2.80;;
73693;SDS011;61997;53.974;11.670;2023-09-19T00:37:58;3.78;;;2.38;;
73693;SDS011;61997;53.974;11.670;2023-09-19T00:40:24;3.88;;;2.33;;
73693;SDS011;61997;53.974;11.670;2023-09-19T00:42:50;3.65;;;2.40;;
73693;SDS011;61997;53.974;11.670;2023-09-19T00:45:16;3.45;;;2.00;;
73693;SDS011;61997;53.974;11.670;2023-09-19T00:47:49;3.78;;;2.53;;
73693;SDS011;61997;53.974;11.670;2023-09-19T00:50:16;3.92;;;2.33;;
73693;SDS011;61997;53.974;11.670;2023-09-19T00:52:43;3.20;;;2.10;;
73693;SDS011;61997;53.974;11.670;2023-09-19T00:55:10;4.13;;;2.00;;
73693;SDS011;61997;53.974;11.670;2023-09-19T00:57:37;3.20;;;2.03;;
73693;SDS011;61997;53.974;11.670;2023-09-19T01:00:03;4.80;;;2.35;;
73693;SDS011;61997;53.974;11.670;2023-09-19T01:02:33;2.65;;;1.90;;
73693;SDS011;61997;53.974;11.670;2023-09-19T01:04:59;3.60;;;2.10;;
73693;SDS011;61997;53.974;11.670;2023-09-19T01:07:26;3.15;;;1.90;;
73693;SDS011;61997;53.974;11.670;2023-09-19T01:09:55;3.80;;;1.88;;
73693;SDS011;61997;53.974;11.670;2023-09-19T01:12:25;3.65;;;1.92;;
73693;SDS011;61997;53.974;11.670;2023-09-19T01:14:59;2.97;;;2.05;;
73693;SDS011;61997;53.974;11.670;2023-09-19T01:17:32;3.28;;;2.00;;
73693;SDS011;61997;53.974;11.670;2023-09-19T01:25:50;3.22;;;2.03;;
73693;SDS011;61997;53.974;11.670;2023-09-19T01:28:39;3.13;;;2.08;;
73693;SDS011;61997;53.974;11.670;2023-09-19T01:33:56;3.72;;;2.20;;
73693;SDS011;61997;53.974;11.670;2023-09-19T01:36:29;2.83;;;1.73;;
73693;SDS011;61997;53.974;11.670;2023-09-19T01:39:00;3.17;;;1.85;;
73693;SDS011;61997;53.974;11.670;2023-09-19T01:41:48;3.35;;;1.70;;
73693;SDS011;61997;53.974;11.670;2023-09-19T01:46:47;2.55;;;1.65;;
73693;SDS011;61997;53.974;11.670;2023-09-19T01:49:25;2.85;;;1.70;;
73693;SDS011;61997;53.974;11.670;2023-09-19T01:52:14;3.13;;;1.60;;
73693;SDS011;61997;53.974;11.670;2023-09-19T01:54:51;2.85;;;1.80;;
73693;SDS011;61997;53.974;11.670;2023-09-19T01:57:30;3.38;;;2.20;;
73693;SDS011;61997;53.974;11.670;2023-09-19T02:00:06;2.35;;;1.45;;
73693;SDS011;61997;53.974;11.670;2023-09-19T02:02:40;3.75;;;1.75;;
73693;SDS011;61997;53.974;11.670;2023-09-19T02:05:09;3.25;;;1.55;;
73693;SDS011;61997;53.974;11.670;2023-09-19T02:07:35;3.17;;;1.50;;
73693;SDS011;61997;53.974;11.670;2023-09-19T02:10:03;2.85;;;1.48;;
73693;SDS011;61997;53.974;11.670;2023-09-19T02:12:30;2.42;;;1.58;;
73693;SDS011;61997;53.974;11.670;2023-09-19T02:14:57;3.42;;;1.63;;
73693;SDS011;61997;53.974;11.670;2023-09-19T02:17:24;3.67;;;1.67;;
73693;SDS011;61997;53.974;11.670;2023-09-19T02:19:51;2.67;;;1.60;;
73693;SDS011;61997;53.974;11.670;2023-09-19T02:22:18;4.05;;;1.50;;
73693;SDS011;61997;53.974;11.670;2023-09-19T02:24:43;2.67;;;1.55;;
73693;SDS011;61997;53.974;11.670;2023-09-19T02:27:08;2.58;;;1.30;;
73693;SDS011;61997;53.974;11.670;2023-09-19T02:29:34;3.00;;;1.55;;
73693;SDS011;61997;53.974;11.670;2023-09-19T02:32:00;2.38;;;1.25;;
73693;SDS011;61997;53.974;11.670;2023-09-19T02:34:28;2.50;;;1.40;;
73693;SDS011;61997;53.974;11.670;2023-09-19T02:36:53;3.22;;;1.50;;
73693;SDS011;61997;53.974;11.670;2023-09-19T02:39:20;3.28;;;1.60;;
73693;SDS011;61997;53.974;11.670;2023-09-19T02:41:45;2.95;;;1.50;;
73693;SDS011;61997;53.974;11.670;2023-09-19T02:44:11;3.00;;;1.70;;
73693;SDS011;61997;53.974;11.670;2023-09-19T02:46:37;3.10;;;1.55;;
73693;SDS011;61997;53.974;11.670;2023-09-19T02:49:02;2.97;;;1.80;;
73693;SDS011;61997;53.974;11.670;2023-09-19T02:51:31;3.03;;;1.55;;
73693;SDS011;61997;53.974;11.670;2023-09-19T02:53:57;2.42;;;1.60;;
73693;SDS011;61997;53.974;11.670;2023-09-19T02:56:23;3.50;;;1.30;;
73693;SDS011;61997;53.974;11.670;2023-09-19T02:58:50;2.65;;;1.63;;
73693;SDS011;61997;53.974;11.670;2023-09-19T03:01:16;3.75;;;1.70;;
73693;SDS011;61997;53.974;11.670;2023-09-19T03:03:43;3.63;;;1.60;;
73693;SDS011;61997;53.974;11.670;2023-09-19T03:06:08;2.28;;;1.50;;
73693;SDS011;61997;53.974;11.670;2023-09-19T03:08:34;2.63;;;1.35;;
73693;SDS011;61997;53.974;11.670;2023-09-19T03:11:03;4.15;;;1.50;;
73693;SDS011;61997;53.974;11.670;2023-09-19T03:13:30;2.92;;;1.30;;
73693;SDS011;61997;53.974;11.670;2023-09-19T03:15:56;3.15;;;1.60;;
73693;SDS011;61997;53.974;11.670;2023-09-19T03:18:23;3.17;;;1.67;;
73693;SDS011;61997;53.974;11.670;2023-09-19T03:20:52;2.63;;;1.50;;
73693;SDS011;61997;53.974;11.670;2023-09-19T03:23:21;2.47;;;1.35;;
73693;SDS011;61997;53.974;11.670;2023-09-19T03:25:46;4.13;;;1.50;;
73693;SDS011;61997;53.974;11.670;2023-09-19T03:28:13;3.13;;;1.70;;
73693;SDS011;61997;53.974;11.670;2023-09-19T03:30:39;2.85;;;1.80;;
73693;SDS011;61997;53.974;11.670;2023-09-19T03:33:05;2.70;;;1.38;;
73693;SDS011;61997;53.974;11.670;2023-09-19T03:35:31;2.75;;;1.60;;
73693;SDS011;61997;53.974;11.670;2023-09-19T03:37:56;2.58;;;1.40;;
73693;SDS011;61997;53.974;11.670;2023-09-19T03:40:22;2.95;;;1.63;;
73693;SDS011;61997;53.974;11.670;2023-09-19T03:42:48;4.13;;;1.88;;
73693;SDS011;61997;53.974;11.670;2023-09-19T03:45:13;2.63;;;1.52;;
73693;SDS011;61997;53.974;11.670;2023-09-19T03:47:40;2.50;;;1.40;;
73693;SDS011;61997;53.974;11.670;2023-09-19T03:50:06;2.80;;;1.50;;
73693;SDS011;61997;53.974;11.670;2023-09-19T03:52:36;2.92;;;2.05;;
73693;SDS011;61997;53.974;11.670;2023-09-19T03:55:01;2.60;;;1.52;;
73693;SDS011;61997;53.974;11.670;2023-09-19T03:57:34;2.97;;;1.60;;
73693;SDS011;61997;53.974;11.670;2023-09-19T04:00:00;3.38;;;1.83;;
73693;SDS011;61997;53.974;11.670;2023-09-19T04:02:26;3.25;;;1.60;;
73693;SDS011;61997;53.974;11.670;2023-09-19T04:04:57;3.38;;;1.42;;
73693;SDS011;61997;53.974;11.670;2023-09-19T04:07:23;2.38;;;1.40;;
73693;SDS011;61997;53.974;11.670;2023-09-19T04:09:50;2.60;;;1.65;;
73693;SDS011;61997;53.974;11.670;2023-09-19T04:12:18;3.20;;;1.70;;
73693;SDS011;61997;53.974;11.670;2023-09-19T04:14:44;2.35;;;1.63;;
73693;SDS011;61997;53.974;11.670;2023-09-19T04:17:09;3.65;;;1.98;;
73693;SDS011;61997;53.974;11.670;2023-09-19T04:19:35;2.90;;;1.58;;
73693;SDS011;61997;53.974;11.670;2023-09-19T04:22:01;3.80;;;1.80;;
73693;SDS011;61997;53.974;11.670;2023-09-19T04:24:26;3.22;;;1.70;;
73693;SDS011;61997;53.974;11.670;2023-09-19T04:26:52;6.88;;;1.85;;
73693;SDS011;61997;53.974;11.670;2023-09-19T04:29:17;3.30;;;1.95;;
73693;SDS011;61997;53.974;11.670;2023-09-19T04:31:44;3.78;;;1.90;;
73693;SDS011;61997;53.974;11.670;2023-09-19T04:34:11;3.00;;;1.70;;
73693;SDS011;61997;53.974;11.670;2023-09-19T04:36:42;2.75;;;1.70;;
73693;SDS011;61997;53.974;11.670;2023-09-19T04:39:08;3.55;;;1.83;;
73693;SDS011;61997;53.974;11.670;2023-09-19T04:41:35;2.72;;;1.70;;
73693;SDS011;61997;53.974;11.670;2023-09-19T04:44:03;2.15;;;1.50;;
73693;SDS011;61997;53.974;11.670;2023-09-19T04:46:29;2.58;;;1.52;;
73693;SDS011;61997;53.974;11.670;2023-09-19T04:48:55;3.20;;;1.80;;
73693;SDS011;61997;53.974;11.670;2023-09-19T04:51:20;2.80;;;1.65;;
73693;SDS011;61997;53.974;11.670;2023-09-19T04:53:45;3.70;;;1.60;;
73693;SDS011;61997;53.974;11.670;2023-09-19T04:56:11;3.72;;;1.75;;
73693;SDS011;61997;53.974;11.670;2023-09-19T04:58:36;2.90;;;1.90;;
73693;SDS011;61997;53.974;11.670;2023-09-19T05:01:02;3.58;;;2.00;;
73693;SDS011;61997;53.974;11.670;2023-09-19T05:03:28;3.33;;;2.05;;
73693;SDS011;61997;53.974;11.670;2023-09-19T05:05:54;3.17;;;2.03;;
73693;SDS011;61997;53.974;11.670;2023-09-19T05:08:19;3.97;;;1.98;;
73693;SDS011;61997;53.974;11.670;2023-09-19T05:10:45;4.57;;;2.08;;
73693;SDS011;61997;53.974;11.670;2023-09-19T05:13:10;3.65;;;2.10;;
73693;SDS011;61997;53.974;11.670;2023-09-19T05:15:37;4.13;;;1.90;;
73693;SDS011;61997;53.974;11.670;2023-09-19T05:18:02;3.75;;;1.80;;
73693;SDS011;61997;53.974;11.670;2023-09-19T05:20:28;3.83;;;1.88;;
73693;SDS011;61997;53.974;11.670;2023-09-19T05:23:05;2.45;;;1.98;;
73693;SDS011;61997;53.974;11.670;2023-09-19T05:25:34;3.53;;;2.10;;
73693;SDS011;61997;53.974;11.670;2023-09-19T05:28:08;3.38;;;2.20;;
73693;SDS011;61997;53.974;11.670;2023-09-19T05:30:35;4.45;;;2.05;;
73693;SDS011;61997;53.974;11.670;2023-09-19T05:33:01;3.85;;;2.50;;
73693;SDS011;61997;53.974;11.670;2023-09-19T05:35:27;3.17;;;1.92;;
73693;SDS011;61997;53.974;11.670;2023-09-19T05:37:53;3.72;;;2.03;;
73693;SDS011;61997;53.974;11.670;2023-09-19T05:40:20;3.22;;;2.13;;
73693;SDS011;61997;53.974;11.670;2023-09-19T05:42:46;3.63;;;2.15;;
73693;SDS011;61997;53.974;11.670;2023-09-19T05:45:12;4.38;;;2.17;;
73693;SDS011;61997;53.974;11.670;2023-09-19T05:47:41;3.40;;;2.30;;
73693;SDS011;61997;53.974;11.670;2023-09-19T05:50:08;3.42;;;2.05;;
73693;SDS011;61997;53.974;11.670;2023-09-19T05:52:35;4.22;;;2.55;;
73693;SDS011;61997;53.974;11.670;2023-09-19T05:55:02;3.58;;;2.42;;
73693;SDS011;61997;53.974;11.670;2023-09-19T05:57:32;3.63;;;2.45;;
73693;SDS011;61997;53.974;11.670;2023-09-19T05:59:57;4.35;;;2.67;;
73693;SDS011;61997;53.974;11.670;2023-09-19T06:02:23;4.55;;;2.35;;
73693;SDS011;61997;53.974;11.670;2023-09-19T06:04:48;5.68;;;2.83;;
73693;SDS011;61997;53.974;11.670;2023-09-19T06:07:14;4.35;;;2.28;;
73693;SDS011;61997;53.974;11.670;2023-09-19T06:09:41;4.85;;;2.80;;
73693;SDS011;61997;53.974;11.670;2023-09-19T06:12:06;4.65;;;2.75;;
73693;SDS011;61997;53.974;11.670;2023-09-19T06:14:32;4.75;;;2.47;;
73693;SDS011;61997;53.974;11.670;2023-09-19T06:16:58;5.15;;;2.40;;
73693;SDS011;61997;53.974;11.670;2023-09-19T06:19:23;5.65;;;2.70;;
73693;SDS011;61997;53.974;11.670;2023-09-19T06:21:50;3.80;;;2.25;;
73693;SDS011;61997;53.974;11.670;2023-09-19T06:24:18;5.22;;;2.40;;
73693;SDS011;61997;53.974;11.670;2023-09-19T06:26:44;3.42;;;2.25;;
73693;SDS011;61997;53.974;11.670;2023-09-19T06:29:09;3.25;;;2.40;;
73693;SDS011;61997;53.974;11.670;2023-09-19T06:31:35;4.82;;;2.33;;
73693;SDS011;61997;53.974;11.670;2023-09-19T06:34:00;4.38;;;2.08;;
73693;SDS011;61997;53.974;11.670;2023-09-19T06:36:25;4.20;;;2.25;;
73693;SDS011;61997;53.974;11.670;2023-09-19T06:38:51;4.03;;;2.08;;
73693;SDS011;61997;53.974;11.670;2023-09-19T06:41:17;3.75;;;2.30;;
73693;SDS011;61997;53.974;11.670;2023-09-19T06:43:42;3.15;;;2.25;;
73693;SDS011;61997;53.974;11.670;2023-09-19T06:46:08;4.97;;;2.17;;
73693;SDS011;61997;53.974;11.670;2023-09-19T06:48:34;5.68;;;2.00;;
73693;SDS011;61997;53.974;11.670;2023-09-19T06:51:00;4.60;;;2.20;;
73693;SDS011;61997;53.974;11.670;2023-09-19T06:53:26;4.78;;;2.20;;
73693;SDS011;61997;53.974;11.670;2023-09-19T06:55:52;3.88;;;2.00;;
73693;SDS011;61997;53.974;11.670;2023-09-19T06:58:18;5.75;;;2.33;;
73693;SDS011;61997;53.974;11.670;2023-09-19T07:00:44;5.00;;;1.90;;
73693;SDS011;61997;53.974;11.670;2023-09-19T07:03:10;5.07;;;2.20;;
73693;SDS011;61997;53.974;11.670;2023-09-19T07:05:37;3.50;;;1.77;;
73693;SDS011;61997;53.974;11.670;2023-09-19T07:08:04;4.88;;;1.88;;
73693;SDS011;61997;53.974;11.670;2023-09-19T07:10:31;6.85;;;2.50;;
73693;SDS011;61997;53.974;11.670;2023-09-19T07:13:01;4.32;;;1.52;;
73693;SDS011;61997;53.974;11.670;2023-09-19T07:15:28;4.43;;;1.98;;
73693;SDS011;61997;53.974;11.670;2023-09-19T07:17:55;4.47;;;1.80;;
73693;SDS011;61997;53.974;11.670;2023-09-19T07:20:21;4.47;;;1.60;;
73693;SDS011;61997;53.974;11.670;2023-09-19T07:22:51;4.28;;;1.50;;
73693;SDS011;61997;53.974;11.670;2023-09-19T07:27:42;2.83;;;1.50;;
73693;SDS011;61997;53.974;11.670;2023-09-19T07:30:07;3.75;;;1.67;;
73693;SDS011;61997;53.974;11.670;2023-09-19T07:32:34;4.15;;;1.70;;
73693;SDS011;61997;53.974;11.670;2023-09-19T07:37:29;4.00;;;2.05;;
73693;SDS011;61997;53.974;11.670;2023-09-19T07:39:56;4.95;;;1.67;;
73693;SDS011;61997;53.974;11.670;2023-09-19T07:42:21;4.22;;;1.73;;
73693;SDS011;61997;53.974;11.670;2023-09-19T07:44:47;3.53;;;1.42;;
73693;SDS011;61997;53.974;11.670;2023-09-19T07:47:15;3.33;;;1.45;;
73693;SDS011;61997;53.974;11.670;2023-09-19T07:49:41;2.75;;;1.38;;
73693;SDS011;61997;53.974;11.670;2023-09-19T07:52:07;2.53;;;1.42;;
73693;SDS011;61997;53.974;11.670;2023-09-19T07:54:34;2.33;;;1.30;;
73693;SDS011;61997;53.974;11.670;2023-09-19T07:57:00;1.88;;;1.10;;
73693;SDS011;61997;53.974;11.670;2023-09-19T07:59:26;1.75;;;1.05;;
73693;SDS011;61997;53.974;11.670;2023-09-19T08:01:52;4.13;;;1.38;;
73693;SDS011;61997;53.974;11.670;2023-09-19T08:04:17;2.30;;;1.35;;
73693;SDS011;61997;53.974;11.670;2023-09-19T08:06:44;2.60;;;1.20;;
73693;SDS011;61997;53.974;11.670;2023-09-19T08:09:10;1.83;;;1.08;;
73693;SDS011;61997;53.974;11.670;2023-09-19T08:11:36;5.03;;;1.33;;
73693;SDS011;61997;53.974;11.670;2023-09-19T08:14:02;3.55;;;1.02;;
73693;SDS011;61997;53.974;11.670;2023-09-19T08:16:43;3.65;;;1.10;;
73693;SDS011;61997;53.974;11.670;2023-09-19T08:19:09;1.85;;;0.95;;
73693;SDS011;61997;53.974;11.670;2023-09-19T08:21:35;3.28;;;1.08;;
73693;SDS011;61997;53.974;11.670;2023-09-19T08:24:01;3.15;;;1.00;;
73693;SDS011;61997;53.974;11.670;2023-09-19T08:26:29;4.00;;;1.25;;
73693;SDS011;61997;53.974;11.670;2023-09-19T08:28:54;3.15;;;1.17;;
73693;SDS011;61997;53.974;11.670;2023-09-19T08:31:20;3.10;;;1.10;;
73693;SDS011;61997;53.974;11.670;2023-09-19T08:33:46;3.30;;;1.20;;
73693;SDS011;61997;53.974;11.670;2023-09-19T08:36:14;2.45;;;1.05;;
73693;SDS011;61997;53.974;11.670;2023-09-19T08:38:40;2.38;;;1.08;;
73693;SDS011;61997;53.974;11.670;2023-09-19T08:41:06;3.45;;;1.02;;
73693;SDS011;61997;53.974;11.670;2023-09-19T08:43:33;2.97;;;1.10;;
73693;SDS011;61997;53.974;11.670;2023-09-19T08:48:31;3.05;;;1.20;;
73693;SDS011;61997;53.974;11.670;2023-09-19T08:51:02;2.85;;;1.15;;
73693;SDS011;61997;53.974;11.670;2023-09-19T08:56:16;3.30;;;1.10;;
73693;SDS011;61997;53.974;11.670;2023-09-19T08:58:44;2.25;;;1.10;;
73693;SDS011;61997;53.974;11.670;2023-09-19T09:01:13;2.97;;;1.10;;
73693;SDS011;61997;53.974;11.670;2023-09-19T09:03:39;2.00;;;0.80;;
73693;SDS011;61997;53.974;11.670;2023-09-19T09:06:06;5.10;;;1.20;;
73693;SDS011;61997;53.974;11.670;2023-09-19T09:08:32;2.33;;;1.13;;
73693;SDS011;61997;53.974;11.670;2023-09-19T09:10:58;2.25;;;0.90;;
73693;SDS011;61997;53.974;11.670;2023-09-19T09:13:24;3.22;;;0.90;;
73693;SDS011;61997;53.974;11.670;2023-09-19T09:15:51;4.63;;;1.25;;
73693;SDS011;61997;53.974;11.670;2023-09-19T09:18:16;2.42;;;1.08;;
73693;SDS011;61997;53.974;11.670;2023-09-19T09:20:43;2.95;;;1.02;;
73693;SDS011;61997;53.974;11.670;2023-09-19T09:23:09;1.83;;;1.02;;
73693;SDS011;61997;53.974;11.670;2023-09-19T09:25:48;2.70;;;1.27;;
73693;SDS011;61997;53.974;11.670;2023-09-19T09:28:19;2.58;;;1.00;;
73693;SDS011;61997;53.974;11.670;2023-09-19T09:30:48;2.45;;;1.13;;
73693;SDS011;61997;53.974;11.670;2023-09-19T09:33:14;3.10;;;1.70;;
73693;SDS011;61997;53.974;11.670;2023-09-19T09:36:14;2.17;;;0.85;;
73693;SDS011;61997;53.974;11.670;2023-09-19T09:38:43;2.05;;;0.82;;
73693;SDS011;61997;53.974;11.670;2023-09-19T09:41:10;2.92;;;1.05;;
73693;SDS011;61997;53.974;11.670;2023-09-19T09:43:40;3.10;;;1.23;;
73693;SDS011;61997;53.974;11.670;2023-09-19T09:48:58;3.58;;;1.10;;
73693;SDS011;61997;53.974;11.670;2023-09-19T09:52:01;2.80;;;0.88;;
73693;SDS011;61997;53.974;11.670;2023-09-19T09:55:02;2.88;;;1.40;;
73693;SDS011;61997;53.974;11.670;2023-09-19T09:57:30;2.28;;;0.82;;
73693;SDS011;61997;53.974;11.670;2023-09-19T09:59:58;2.20;;;1.10;;
73693;SDS011;61997;53.974;11.670;2023-09-19T10:02:36;3.30;;;1.10;;
73693;SDS011;61997;53.974;11.670;2023-09-19T10:07:48;3.83;;;1.00;;
73693;SDS011;61997;53.974;11.670;2023-09-19T10:10:16;2.75;;;1.02;;
73693;SDS011;61997;53.974;11.670;2023-09-19T10:13:07;1.88;;;0.80;;
73693;SDS011;61997;53.974;11.670;2023-09-19T10:15:43;2.28;;;1.23;;
73693;SDS011;61997;53.974;11.670;2023-09-19T10:18:19;1.98;;;1.00;;
73693;SDS011;61997;53.974;11.670;2023-09-19T10:20:49;2.40;;;1.08;;
73693;SDS011;61997;53.974;11.670;2023-09-19T10:23:16;2.45;;;0.90;;
73693;SDS011;61997;53.974;11.670;2023-09-19T10:25:53;3.72;;;1.10;;
73693;SDS011;61997;53.974;11.670;2023-09-19T10:28:20;1.73;;;1.10;;
73693;SDS011;61997;53.974;11.670;2023-09-19T10:30:50;1.50;;;1.00;;
73693;SDS011;61997;53.974;11.670;2023-09-19T10:33:17;2.80;;;1.02;;
73693;SDS011;61997;53.974;11.670;2023-09-19T10:35:49;4.15;;;1.17;;
73693;SDS011;61997;53.974;11.670;2023-09-19T10:38:19;2.22;;;1.00;;
73693;SDS011;61997;53.974;11.670;2023-09-19T10:40:48;2.85;;;0.93;;
73693;SDS011;61997;53.974;11.670;2023-09-19T10:43:15;1.70;;;0.88;;
73693;SDS011;61997;53.974;11.670;2023-09-19T10:45:46;3.47;;;1.10;;
73693;SDS011;61997;53.974;11.670;2023-09-19T10:48:15;4.10;;;1.20;;
73693;SDS011;61997;53.974;11.670;2023-09-19T10:53:17;3.13;;;1.20;;
73693;SDS011;61997;53.974;11.670;2023-09-19T10:55:50;2.78;;;1.10;;
73693;SDS011;61997;53.974;11.670;2023-09-19T10:58:29;4.85;;;1.40;;
73693;SDS011;61997;53.974;11.670;2023-09-19T11:00:59;2.05;;;1.00;;
73693;SDS011;61997;53.974;11.670;2023-09-19T11:03:31;3.28;;;1.00;;
73693;SDS011;61997;53.974;11.670;2023-09-19T11:06:09;2.58;;;1.15;;
73693;SDS011;61997;53.974;11.670;2023-09-19T11:14:15;1.95;;;1.15;;
73693;SDS011;61997;53.974;11.670;2023-09-19T11:30:50;3.75;;;1.25;;
73693;SDS011;61997;53.974;11.670;2023-09-19T11:47:14;2.90;;;1.00;;
73693;SDS011;61997;53.974;11.670;2023-09-19T11:49:18;3.20;;;1.10;;
73693;SDS011;61997;53.974;11.670;2023-09-19T11:51:50;1.90;;;1.20;;
73693;SDS011;61997;53.974;11.670;2023-09-19T11:54:16;2.75;;;1.00;;
73693;SDS011;61997;53.974;11.670;2023-09-19T11:56:52;3.05;;;1.13;;
73693;SDS011;61997;53.974;11.670;2023-09-19T11:59:21;2.88;;;0.98;;
73693;SDS011;61997;53.974;11.670;2023-09-19T12:01:52;3.45;;;1.27;;
73693;SDS011;61997;53.974;11.670;2023-09-19T12:04:34;2.88;;;1.10;;
73693;SDS011;61997;53.974;11.670;2023-09-19T12:07:12;2.58;;;1.10;;
73693;SDS011;61997;53.974;11.670;2023-09-19T12:12:20;3.00;;;1.40;;
73693;SDS011;61997;53.974;11.670;2023-09-19T12:14:49;3.30;;;1.20;;
73693;SDS011;61997;53.974;11.670;2023-09-19T12:17:15;1.75;;;0.95;;
73693;SDS011;61997;53.974;11.670;2023-09-19T12:19:53;2.55;;;1.05;;
73693;SDS011;61997;53.974;11.670;2023-09-19T12:22:19;2.47;;;1.10;;
73693;SDS011;61997;53.974;11.670;2023-09-19T12:24:46;2.75;;;1.02;;
73693;SDS011;61997;53.974;11.670;2023-09-19T12:27:15;2.78;;;1.13;;
73693;SDS011;61997;53.974;11.670;2023-09-19T12:29:44;2.72;;;1.10;;
73693;SDS011;61997;53.974;11.670;2023-09-19T12:32:16;2.17;;;0.82;;
73693;SDS011;61997;53.974;11.670;2023-09-19T12:34:52;2.92;;;1.10;;
73693;SDS011;61997;53.974;11.670;2023-09-19T12:37:19;2.35;;;0.82;;
73693;SDS011;61997;53.974;11.670;2023-09-19T12:40:02;2.78;;;1.15;;
73693;SDS011;61997;53.974;11.670;2023-09-19T12:42:46;3.42;;;0.90;;
73693;SDS011;61997;53.974;11.670;2023-09-19T12:45:14;1.52;;;0.90;;
73693;SDS011;61997;53.974;11.670;2023-09-19T12:53:40;2.22;;;1.08;;
73693;SDS011;61997;53.974;11.670;2023-09-19T12:56:17;2.22;;;1.30;;
73693;SDS011;61997;53.974;11.670;2023-09-19T12:58:53;3.10;;;1.42;;
73693;SDS011;61997;53.974;11.670;2023-09-19T13:01:26;2.92;;;0.88;;
73693;SDS011;61997;53.974;11.670;2023-09-19T13:06:44;3.47;;;1.13;;
73693;SDS011;61997;53.974;11.670;2023-09-19T13:09:16;3.55;;;1.38;;
73693;SDS011;61997;53.974;11.670;2023-09-19T13:11:42;3.47;;;1.20;;
73693;SDS011;61997;53.974;11.670;2023-09-19T13:14:17;2.45;;;1.13;;
73693;SDS011;61997;53.974;11.670;2023-09-19T13:17:03;1.40;;;0.77;;
73693;SDS011;61997;53.974;11.670;2023-09-19T13:19:42;3.45;;;1.35;;
73693;SDS011;61997;53.974;11.670;2023-09-19T13:25:23;4.05;;;1.42;;
73693;SDS011;61997;53.974;11.670;2023-09-19T13:27:49;2.05;;;1.20;;
73693;SDS011;61997;53.974;11.670;2023-09-19T13:30:21;2.80;;;1.00;;
73693;SDS011;61997;53.974;11.670;2023-09-19T13:32:50;2.88;;;1.42;;
73693;SDS011;61997;53.974;11.670;2023-09-19T13:35:17;3.53;;;1.30;;
73693;SDS011;61997;53.974;11.670;2023-09-19T13:37:43;4.68;;;1.30;;
73693;SDS011;61997;53.974;11.670;2023-09-19T13:42:37;2.97;;;1.35;;
73693;SDS011;61997;53.974;11.670;2023-09-19T13:45:03;4.13;;;1.58;;
73693;SDS011;61997;53.974;11.670;2023-09-19T13:47:32;5.05;;;1.45;;
73693;SDS011;61997;53.974;11.670;2023-09-19T13:49:59;4.68;;;1.75;;
73693;SDS011;61997;53.974;11.670;2023-09-19T13:52:26;3.33;;;1.48;;
73693;SDS011;61997;53.974;11.670;2023-09-19T13:54:53;3.25;;;1.27;;
73693;SDS011;61997;53.974;11.670;2023-09-19T13:57:23;3.05;;;1.23;;
73693;SDS011;61997;53.974;11.670;2023-09-19T13:59:49;3.10;;;1.38;;
73693;SDS011;61997;53.974;11.670;2023-09-19T14:02:14;3.10;;;1.52;;
73693;SDS011;61997;53.974;11.670;2023-09-19T14:04:40;3.97;;;1.70;;
73693;SDS011;61997;53.974;11.670;2023-09-19T14:07:06;2.70;;;1.33;;
73693;SDS011;61997;53.974;11.670;2023-09-19T14:09:32;2.92;;;1.50;;
73693;SDS011;61997;53.974;11.670;2023-09-19T14:11:58;3.50;;;1.50;;
73693;SDS011;61997;53.974;11.670;2023-09-19T14:14:24;4.35;;;1.40;;
73693;SDS011;61997;53.974;11.670;2023-09-19T14:16:49;2.58;;;1.38;;
73693;SDS011;61997;53.974;11.670;2023-09-19T14:19:17;3.10;;;1.50;;
73693;SDS011;61997;53.974;11.670;2023-09-19T14:21:42;3.42;;;1.70;;
73693;SDS011;61997;53.974;11.670;2023-09-19T14:24:08;3.25;;;1.90;;
73693;SDS011;61997;53.974;11.670;2023-09-19T14:26:34;3.40;;;1.77;;
73693;SDS011;61997;53.974;11.670;2023-09-19T14:29:00;3.80;;;1.60;;
73693;SDS011;61997;53.974;11.670;2023-09-19T14:31:26;3.00;;;1.45;;
73693;SDS011;61997;53.974;11.670;2023-09-19T14:33:56;4.47;;;1.90;;
73693;SDS011;61997;53.974;11.670;2023-09-19T14:36:21;3.70;;;1.70;;
73693;SDS011;61997;53.974;11.670;2023-09-19T14:38:47;2.78;;;1.30;;
73693;SDS011;61997;53.974;11.670;2023-09-19T14:41:12;3.42;;;1.45;;
73693;SDS011;61997;53.974;11.670;2023-09-19T14:43:38;6.20;;;1.98;;
73693;SDS011;61997;53.974;11.670;2023-09-19T14:46:06;4.85;;;1.58;;
73693;SDS011;61997;53.974;11.670;2023-09-19T14:48:35;3.35;;;1.75;;
73693;SDS011;61997;53.974;11.670;2023-09-19T14:51:03;4.30;;;1.73;;
73693;SDS011;61997;53.974;11.670;2023-09-19T14:53:30;4.13;;;1.50;;
73693;SDS011;61997;53.974;11.670;2023-09-19T14:55:56;3.05;;;1.60;;
73693;SDS011;61997;53.974;11.670;2023-09-19T14:58:21;3.40;;;1.70;;
73693;SDS011;61997;53.974;11.670;2023-09-19T15:00:47;4.10;;;1.65;;
73693;SDS011;61997;53.974;11.670;2023-09-19T15:03:12;4.28;;;1.90;;
73693;SDS011;61997;53.974;11.670;2023-09-19T15:08:09;3.10;;;1.75;;
73693;SDS011;61997;53.974;11.670;2023-09-19T15:10:35;3.28;;;1.60;;
73693;SDS011;61997;53.974;11.670;2023-09-19T15:13:01;4.10;;;1.38;;
73693;SDS011;61997;53.974;11.670;2023-09-19T15:15:27;4.82;;;1.63;;
73693;SDS011;61997;53.974;11.670;2023-09-19T15:17:52;2.97;;;1.50;;
73693;SDS011;61997;53.974;11.670;2023-09-19T15:20:18;2.22;;;1.13;;
73693;SDS011;61997;53.974;11.670;2023-09-19T15:22:44;3.22;;;1.50;;
73693;SDS011;61997;53.974;11.670;2023-09-19T15:25:09;2.63;;;1.42;;
73693;SDS011;61997;53.974;11.670;2023-09-19T15:27:35;3.72;;;1.65;;
73693;SDS011;61997;53.974;11.670;2023-09-19T15:30:02;3.80;;;1.65;;
73693;SDS011;61997;53.974;11.670;2023-09-19T15:32:28;4.45;;;1.58;;
73693;SDS011;61997;53.974;11.670;2023-09-19T15:34:54;4.50;;;1.77;;
73693;SDS011;61997;53.974;11.670;2023-09-19T15:37:20;2.67;;;1.40;;
73693;SDS011;61997;53.974;11.670;2023-09-19T15:39:45;4.07;;;1.63;;
73693;SDS011;61997;53.974;11.670;2023-09-19T15:42:11;2.97;;;1.50;;
73693;SDS011;61997;53.974;11.670;2023-09-19T15:44:36;4.22;;;1.50;;
73693;SDS011;61997;53.974;11.670;2023-09-19T15:47:02;3.92;;;1.42;;
73693;SDS011;61997;53.974;11.670;2023-09-19T15:49:29;2.42;;;1.42;;
73693;SDS011;61997;53.974;11.670;2023-09-19T15:51:54;3.42;;;1.55;;
73693;SDS011;61997;53.974;11.670;2023-09-19T15:54:20;3.90;;;1.50;;
73693;SDS011;61997;53.974;11.670;2023-09-19T15:56:45;3.45;;;1.58;;
73693;SDS011;61997;53.974;11.670;2023-09-19T15:59:16;2.58;;;1.50;;
73693;SDS011;61997;53.974;11.670;2023-09-19T16:01:43;4.65;;;1.50;;
73693;SDS011;61997;53.974;11.670;2023-09-19T16:04:09;2.53;;;1.35;;